sensor_id;sensor_type;location;lat;lon;timestamp;P1;durP1;ratioP1;P2;durP2;ratioP2
21356;SDS011;10836;53.068;18.234;2022-09-01T00:00:03;8.13;;;3.23;;
21356;SDS011;10836;53.068;18.234;2022-09-01T00:02:55;9.23;;;3.17;;
21356;SDS011;10836;53.068;18.234;2022-09-01T00:05:22;10.30;;;2.87;;
21356;SDS011;10836;53.068;18.234;2022-09-01T00:07:49;8.93;;;3.50;;
21356;SDS011;10836;53.068;18.234;2022-09-01T00:10:16;10.53;;;3.63;;
21356;SDS011;10836;53.068;18.234;2022-09-01T00:12:44;9.13;;;3.07;;
21356;SDS011;10836;53.068;18.234;2022-09-01T00:15:11;7.27;;;2.67;;
21356;SDS011;10836;53.068;18.234;2022-09-01T00:17:38;5.83;;;2.27;;
21356;SDS011;10836;53.068;18.234;2022-09-01T00:20:06;6.93;;;2.43;;
21356;SDS011;10836;53.068;18.234;2022-09-01T00:22:34;4.33;;;2.43;;
21356;SDS011;10836;53.068;18.234;2022-09-01T00:25:01;4.67;;;2.73;;
21356;SDS011;10836;53.068;18.234;2022-09-01T00:27:29;8.17;;;2.73;;
21356;SDS011;10836;53.068;18.234;2022-09-01T00:29:57;9.03;;;2.47;;
21356;SDS011;10836;53.068;18.234;2022-09-01T00:32:24;7.23;;;2.70;;
21356;SDS011;10836;53.068;18.234;2022-09-01T00:34:52;5.10;;;2.63;;
21356;SDS011;10836;53.068;18.234;2022-09-01T00:37:19;2.40;;;1.90;;
21356;SDS011;10836;53.068;18.234;2022-09-01T00:39:47;5.17;;;2.60;;
21356;SDS011;10836;53.068;18.234;2022-09-01T00:42:14;8.97;;;2.73;;
21356;SDS011;10836;53.068;18.234;2022-09-01T00:44:41;6.43;;;2.33;;
21356;SDS011;10836;53.068;18.234;2022-09-01T00:47:08;9.00;;;2.40;;
21356;SDS011;10836;53.068;18.234;2022-09-01T00:49:38;9.90;;;2.60;;
21356;SDS011;10836;53.068;18.234;2022-09-01T00:52:13;6.50;;;2.40;;
21356;SDS011;10836;53.068;18.234;2022-09-01T00:54:47;6.73;;;2.60;;
21356;SDS011;10836;53.068;18.234;2022-09-01T00:57:19;9.00;;;3.10;;
21356;SDS011;10836;53.068;18.234;2022-09-01T00:59:49;6.47;;;2.60;;
21356;SDS011;10836;53.068;18.234;2022-09-01T01:02:21;8.47;;;3.50;;
21356;SDS011;10836;53.068;18.234;2022-09-01T01:04:48;9.43;;;4.43;;
21356;SDS011;10836;53.068;18.234;2022-09-01T01:07:19;8.97;;;3.63;;
21356;SDS011;10836;53.068;18.234;2022-09-01T01:09:48;10.27;;;4.60;;
21356;SDS011;10836;53.068;18.234;2022-09-01T01:12:17;13.27;;;4.70;;
21356;SDS011;10836;53.068;18.234;2022-09-01T01:14:46;16.53;;;5.23;;
21356;SDS011;10836;53.068;18.234;2022-09-01T01:17:19;16.43;;;5.40;;
21356;SDS011;10836;53.068;18.234;2022-09-01T01:19:52;17.87;;;5.57;;
21356;SDS011;10836;53.068;18.234;2022-09-01T01:28:22;21.87;;;7.20;;
21356;SDS011;10836;53.068;18.234;2022-09-01T01:31:15;17.47;;;6.77;;
21356;SDS011;10836;53.068;18.234;2022-09-01T01:33:47;19.27;;;6.17;;
21356;SDS011;10836;53.068;18.234;2022-09-01T01:36:17;15.00;;;6.03;;
21356;SDS011;10836;53.068;18.234;2022-09-01T01:38:46;16.23;;;6.53;;
21356;SDS011;10836;53.068;18.234;2022-09-01T01:41:16;14.67;;;5.67;;
21356;SDS011;10836;53.068;18.234;2022-09-01T01:43:46;13.00;;;5.27;;
21356;SDS011;10836;53.068;18.234;2022-09-01T01:46:15;15.33;;;5.90;;
21356;SDS011;10836;53.068;18.234;2022-09-01T01:48:46;10.57;;;4.73;;
21356;SDS011;10836;53.068;18.234;2022-09-01T01:51:16;12.43;;;4.83;;
21356;SDS011;10836;53.068;18.234;2022-09-01T01:53:46;12.30;;;3.93;;
21356;SDS011;10836;53.068;18.234;2022-09-01T01:56:19;13.13;;;4.90;;
21356;SDS011;10836;53.068;18.234;2022-09-01T01:58:49;13.60;;;5.13;;
21356;SDS011;10836;53.068;18.234;2022-09-01T02:01:25;18.13;;;7.57;;
21356;SDS011;10836;53.068;18.234;2022-09-01T02:03:55;19.40;;;5.93;;
21356;SDS011;10836;53.068;18.234;2022-09-01T02:06:26;22.37;;;7.07;;
21356;SDS011;10836;53.068;18.234;2022-09-01T02:08:56;16.77;;;6.53;;
21356;SDS011;10836;53.068;18.234;2022-09-01T02:11:24;17.93;;;6.67;;
21356;SDS011;10836;53.068;18.234;2022-09-01T02:13:53;15.53;;;6.97;;
21356;SDS011;10836;53.068;18.234;2022-09-01T02:16:24;15.40;;;6.23;;
21356;SDS011;10836;53.068;18.234;2022-09-01T02:18:52;20.63;;;7.03;;
21356;SDS011;10836;53.068;18.234;2022-09-01T02:21:21;18.00;;;6.03;;
21356;SDS011;10836;53.068;18.234;2022-09-01T02:23:50;14.03;;;5.97;;
21356;SDS011;10836;53.068;18.234;2022-09-01T02:26:30;15.43;;;6.47;;
21356;SDS011;10836;53.068;18.234;2022-09-01T02:29:00;19.33;;;7.93;;
21356;SDS011;10836;53.068;18.234;2022-09-01T02:31:32;19.80;;;7.87;;
21356;SDS011;10836;53.068;18.234;2022-09-01T02:34:01;16.73;;;5.87;;
21356;SDS011;10836;53.068;18.234;2022-09-01T02:36:30;16.43;;;6.30;;
21356;SDS011;10836;53.068;18.234;2022-09-01T02:39:03;20.07;;;8.20;;
21356;SDS011;10836;53.068;18.234;2022-09-01T02:41:33;21.43;;;7.57;;
21356;SDS011;10836;53.068;18.234;2022-09-01T02:44:02;22.33;;;8.30;;
21356;SDS011;10836;53.068;18.234;2022-09-01T02:46:38;16.73;;;7.00;;
21356;SDS011;10836;53.068;18.234;2022-09-01T02:49:10;16.67;;;7.23;;
21356;SDS011;10836;53.068;18.234;2022-09-01T02:51:43;14.47;;;7.07;;
21356;SDS011;10836;53.068;18.234;2022-09-01T02:54:15;16.10;;;6.50;;
21356;SDS011;10836;53.068;18.234;2022-09-01T02:56:44;16.07;;;6.53;;
21356;SDS011;10836;53.068;18.234;2022-09-01T02:59:14;13.00;;;5.37;;
21356;SDS011;10836;53.068;18.234;2022-09-01T03:01:41;16.47;;;6.90;;
21356;SDS011;10836;53.068;18.234;2022-09-01T03:04:10;14.87;;;6.83;;
21356;SDS011;10836;53.068;18.234;2022-09-01T03:06:38;16.73;;;7.60;;
21356;SDS011;10836;53.068;18.234;2022-09-01T03:09:07;13.97;;;5.90;;
21356;SDS011;10836;53.068;18.234;2022-09-01T03:11:38;10.37;;;6.03;;
21356;SDS011;10836;53.068;18.234;2022-09-01T03:14:06;15.07;;;6.87;;
21356;SDS011;10836;53.068;18.234;2022-09-01T03:16:34;12.87;;;6.23;;
21356;SDS011;10836;53.068;18.234;2022-09-01T03:19:03;14.73;;;7.20;;
21356;SDS011;10836;53.068;18.234;2022-09-01T03:21:35;16.77;;;7.63;;
21356;SDS011;10836;53.068;18.234;2022-09-01T03:24:11;14.43;;;6.93;;
21356;SDS011;10836;53.068;18.234;2022-09-01T03:26:41;16.17;;;7.17;;
21356;SDS011;10836;53.068;18.234;2022-09-01T03:29:12;12.63;;;6.73;;
21356;SDS011;10836;53.068;18.234;2022-09-01T03:31:40;15.30;;;6.73;;
21356;SDS011;10836;53.068;18.234;2022-09-01T03:34:08;13.37;;;6.80;;
21356;SDS011;10836;53.068;18.234;2022-09-01T03:36:42;14.50;;;6.77;;
21356;SDS011;10836;53.068;18.234;2022-09-01T03:39:26;17.07;;;7.27;;
21356;SDS011;10836;53.068;18.234;2022-09-01T03:41:54;15.97;;;7.80;;
21356;SDS011;10836;53.068;18.234;2022-09-01T03:44:22;16.40;;;7.90;;
21356;SDS011;10836;53.068;18.234;2022-09-01T03:46:49;18.23;;;8.90;;
21356;SDS011;10836;53.068;18.234;2022-09-01T03:49:18;17.60;;;7.73;;
21356;SDS011;10836;53.068;18.234;2022-09-01T03:51:50;14.70;;;7.40;;
21356;SDS011;10836;53.068;18.234;2022-09-01T03:54:21;14.27;;;6.80;;
21356;SDS011;10836;53.068;18.234;2022-09-01T03:56:54;16.37;;;8.03;;
21356;SDS011;10836;53.068;18.234;2022-09-01T03:59:25;20.63;;;9.40;;
21356;SDS011;10836;53.068;18.234;2022-09-01T04:01:54;15.20;;;8.03;;
21356;SDS011;10836;53.068;18.234;2022-09-01T04:04:22;16.47;;;8.53;;
21356;SDS011;10836;53.068;18.234;2022-09-01T04:06:50;15.23;;;7.13;;
21356;SDS011;10836;53.068;18.234;2022-09-01T04:09:17;14.93;;;6.97;;
21356;SDS011;10836;53.068;18.234;2022-09-01T04:11:45;19.37;;;7.23;;
21356;SDS011;10836;53.068;18.234;2022-09-01T04:14:16;17.80;;;6.77;;
21356;SDS011;10836;53.068;18.234;2022-09-01T04:16:45;14.33;;;7.27;;
21356;SDS011;10836;53.068;18.234;2022-09-01T04:19:33;13.07;;;6.17;;
21356;SDS011;10836;53.068;18.234;2022-09-01T04:22:04;13.97;;;6.80;;
21356;SDS011;10836;53.068;18.234;2022-09-01T04:24:43;13.27;;;6.57;;
21356;SDS011;10836;53.068;18.234;2022-09-01T04:27:13;10.83;;;6.17;;
21356;SDS011;10836;53.068;18.234;2022-09-01T04:29:41;10.73;;;5.17;;
21356;SDS011;10836;53.068;18.234;2022-09-01T04:32:13;7.70;;;4.47;;
21356;SDS011;10836;53.068;18.234;2022-09-01T04:34:47;11.13;;;5.80;;
21356;SDS011;10836;53.068;18.234;2022-09-01T04:37:17;11.93;;;6.17;;
21356;SDS011;10836;53.068;18.234;2022-09-01T04:39:54;12.13;;;6.20;;
21356;SDS011;10836;53.068;18.234;2022-09-01T04:42:25;14.00;;;6.47;;
21356;SDS011;10836;53.068;18.234;2022-09-01T04:44:57;8.63;;;4.80;;
21356;SDS011;10836;53.068;18.234;2022-09-01T04:47:37;9.60;;;4.83;;
21356;SDS011;10836;53.068;18.234;2022-09-01T04:50:09;10.37;;;4.60;;
21356;SDS011;10836;53.068;18.234;2022-09-01T04:53:00;12.30;;;4.90;;
21356;SDS011;10836;53.068;18.234;2022-09-01T04:55:32;8.07;;;4.90;;
21356;SDS011;10836;53.068;18.234;2022-09-01T04:57:59;15.10;;;5.50;;
21356;SDS011;10836;53.068;18.234;2022-09-01T05:00:28;10.23;;;5.57;;
21356;SDS011;10836;53.068;18.234;2022-09-01T05:02:59;11.00;;;5.23;;
21356;SDS011;10836;53.068;18.234;2022-09-01T05:06:00;12.57;;;5.23;;
21356;SDS011;10836;53.068;18.234;2022-09-01T05:08:30;10.30;;;5.60;;
21356;SDS011;10836;53.068;18.234;2022-09-01T05:11:06;10.20;;;5.10;;
21356;SDS011;10836;53.068;18.234;2022-09-01T05:13:37;12.53;;;6.07;;
21356;SDS011;10836;53.068;18.234;2022-09-01T05:16:08;12.87;;;6.80;;
21356;SDS011;10836;53.068;18.234;2022-09-01T05:18:41;10.57;;;5.47;;
21356;SDS011;10836;53.068;18.234;2022-09-01T05:21:14;12.37;;;6.57;;
21356;SDS011;10836;53.068;18.234;2022-09-01T05:23:44;10.90;;;6.13;;
21356;SDS011;10836;53.068;18.234;2022-09-01T05:26:14;10.07;;;5.83;;
21356;SDS011;10836;53.068;18.234;2022-09-01T05:28:45;10.23;;;6.17;;
21356;SDS011;10836;53.068;18.234;2022-09-01T05:31:14;11.43;;;6.30;;
21356;SDS011;10836;53.068;18.234;2022-09-01T05:33:46;9.53;;;5.87;;
21356;SDS011;10836;53.068;18.234;2022-09-01T05:36:17;13.03;;;5.93;;
21356;SDS011;10836;53.068;18.234;2022-09-01T05:38:46;12.13;;;5.87;;
21356;SDS011;10836;53.068;18.234;2022-09-01T05:41:15;13.33;;;5.70;;
21356;SDS011;10836;53.068;18.234;2022-09-01T05:43:45;9.53;;;6.20;;
21356;SDS011;10836;53.068;18.234;2022-09-01T05:46:16;11.70;;;5.20;;
21356;SDS011;10836;53.068;18.234;2022-09-01T05:48:50;12.32;;;5.53;;
21356;SDS011;10836;53.068;18.234;2022-09-01T05:51:22;10.60;;;4.97;;
21356;SDS011;10836;53.068;18.234;2022-09-01T05:54:11;11.27;;;5.47;;
21356;SDS011;10836;53.068;18.234;2022-09-01T05:56:40;15.63;;;4.97;;
21356;SDS011;10836;53.068;18.234;2022-09-01T05:59:13;9.27;;;4.95;;
21356;SDS011;10836;53.068;18.234;2022-09-01T06:01:52;10.30;;;4.85;;
21356;SDS011;10836;53.068;18.234;2022-09-01T06:04:21;10.40;;;5.82;;
21356;SDS011;10836;53.068;18.234;2022-09-01T06:06:52;7.90;;;4.80;;
21356;SDS011;10836;53.068;18.234;2022-09-01T06:09:38;13.30;;;5.78;;
21356;SDS011;10836;53.068;18.234;2022-09-01T06:12:07;19.67;;;5.53;;
21356;SDS011;10836;53.068;18.234;2022-09-01T06:14:44;11.02;;;5.68;;
21356;SDS011;10836;53.068;18.234;2022-09-01T06:17:15;12.88;;;5.00;;
21356;SDS011;10836;53.068;18.234;2022-09-01T06:19:45;12.77;;;4.95;;
21356;SDS011;10836;53.068;18.234;2022-09-01T06:22:13;16.25;;;5.55;;
21356;SDS011;10836;53.068;18.234;2022-09-01T06:24:40;16.45;;;4.97;;
21356;SDS011;10836;53.068;18.234;2022-09-01T06:27:11;11.98;;;4.00;;
21356;SDS011;10836;53.068;18.234;2022-09-01T06:29:38;10.77;;;4.20;;
21356;SDS011;10836;53.068;18.234;2022-09-01T06:32:07;6.65;;;3.25;;
21356;SDS011;10836;53.068;18.234;2022-09-01T06:34:38;11.95;;;3.00;;
21356;SDS011;10836;53.068;18.234;2022-09-01T06:37:12;7.22;;;1.73;;
21356;SDS011;10836;53.068;18.234;2022-09-01T06:39:43;3.63;;;1.83;;
21356;SDS011;10836;53.068;18.234;2022-09-01T06:42:11;3.92;;;1.48;;
21356;SDS011;10836;53.068;18.234;2022-09-01T06:44:47;3.42;;;1.33;;
21356;SDS011;10836;53.068;18.234;2022-09-01T06:47:14;3.25;;;1.05;;
21356;SDS011;10836;53.068;18.234;2022-09-01T06:49:42;5.65;;;1.35;;
21356;SDS011;10836;53.068;18.234;2022-09-01T06:52:14;1.60;;;0.90;;
21356;SDS011;10836;53.068;18.234;2022-09-01T06:54:42;5.53;;;0.95;;
21356;SDS011;10836;53.068;18.234;2022-09-01T06:57:10;4.07;;;1.20;;
21356;SDS011;10836;53.068;18.234;2022-09-01T06:59:57;1.80;;;0.88;;
21356;SDS011;10836;53.068;18.234;2022-09-01T07:02:27;4.85;;;1.02;;
21356;SDS011;10836;53.068;18.234;2022-09-01T07:05:25;2.83;;;1.05;;
21356;SDS011;10836;53.068;18.234;2022-09-01T07:08:13;2.75;;;0.85;;
21356;SDS011;10836;53.068;18.234;2022-09-01T07:11:05;3.10;;;0.90;;
21356;SDS011;10836;53.068;18.234;2022-09-01T07:13:56;2.45;;;1.00;;
21356;SDS011;10836;53.068;18.234;2022-09-01T07:16:43;1.33;;;0.70;;
21356;SDS011;10836;53.068;18.234;2022-09-01T07:19:19;1.70;;;0.98;;
21356;SDS011;10836;53.068;18.234;2022-09-01T07:21:52;1.27;;;0.70;;
21356;SDS011;10836;53.068;18.234;2022-09-01T07:24:44;1.60;;;0.73;;
21356;SDS011;10836;53.068;18.234;2022-09-01T07:27:53;3.28;;;0.80;;
21356;SDS011;10836;53.068;18.234;2022-09-01T07:30:26;0.65;;;0.57;;
21356;SDS011;10836;53.068;18.234;2022-09-01T07:32:54;5.72;;;0.90;;
21356;SDS011;10836;53.068;18.234;2022-09-01T07:35:23;2.08;;;0.80;;
21356;SDS011;10836;53.068;18.234;2022-09-01T07:37:51;0.82;;;0.47;;
21356;SDS011;10836;53.068;18.234;2022-09-01T07:40:40;4.97;;;1.30;;
21356;SDS011;10836;53.068;18.234;2022-09-01T07:43:51;1.60;;;0.50;;
21356;SDS011;10836;53.068;18.234;2022-09-01T07:46:24;2.90;;;0.52;;
21356;SDS011;10836;53.068;18.234;2022-09-01T07:49:12;2.03;;;0.60;;
21356;SDS011;10836;53.068;18.234;2022-09-01T07:52:00;1.00;;;0.30;;
21356;SDS011;10836;53.068;18.234;2022-09-01T07:54:30;3.08;;;0.63;;
21356;SDS011;10836;53.068;18.234;2022-09-01T07:56:57;1.45;;;0.52;;
21356;SDS011;10836;53.068;18.234;2022-09-01T07:59:25;16.35;;;1.30;;
21356;SDS011;10836;53.068;18.234;2022-09-01T08:02:12;1.60;;;0.47;;
21356;SDS011;10836;53.068;18.234;2022-09-01T08:04:41;11.73;;;1.02;;
21356;SDS011;10836;53.068;18.234;2022-09-01T08:07:09;1.88;;;0.52;;
21356;SDS011;10836;53.068;18.234;2022-09-01T08:09:42;1.05;;;0.40;;
21356;SDS011;10836;53.068;18.234;2022-09-01T08:12:12;1.15;;;0.50;;
21356;SDS011;10836;53.068;18.234;2022-09-01T08:14:45;0.73;;;0.30;;
21356;SDS011;10836;53.068;18.234;2022-09-01T08:17:12;2.83;;;0.40;;
21356;SDS011;10836;53.068;18.234;2022-09-01T08:20:03;2.15;;;0.57;;
21356;SDS011;10836;53.068;18.234;2022-09-01T08:22:54;0.95;;;0.65;;
21356;SDS011;10836;53.068;18.234;2022-09-01T08:25:34;1.60;;;0.45;;
21356;SDS011;10836;53.068;18.234;2022-09-01T08:28:03;1.92;;;0.50;;
21356;SDS011;10836;53.068;18.234;2022-09-01T08:30:32;2.83;;;0.60;;
21356;SDS011;10836;53.068;18.234;2022-09-01T08:33:00;2.20;;;0.38;;
21356;SDS011;10836;53.068;18.234;2022-09-01T08:35:46;1.70;;;0.40;;
21356;SDS011;10836;53.068;18.234;2022-09-01T08:38:16;1.05;;;0.50;;
21356;SDS011;10836;53.068;18.234;2022-09-01T08:40:48;1.25;;;0.47;;
21356;SDS011;10836;53.068;18.234;2022-09-01T08:44:27;2.05;;;0.70;;
21356;SDS011;10836;53.068;18.234;2022-09-01T08:46:34;2.22;;;0.43;;
21356;SDS011;10836;53.068;18.234;2022-09-01T08:49:06;1.35;;;0.45;;
21356;SDS011;10836;53.068;18.234;2022-09-01T08:57:38;0.73;;;0.38;;
21356;SDS011;10836;53.068;18.234;2022-09-01T09:00:23;1.02;;;0.30;;
21356;SDS011;10836;53.068;18.234;2022-09-01T09:08:56;1.75;;;0.40;;
21356;SDS011;10836;53.068;18.234;2022-09-01T09:17:04;4.70;;;0.40;;
21356;SDS011;10836;53.068;18.234;2022-09-01T09:19:35;0.88;;;0.30;;
21356;SDS011;10836;53.068;18.234;2022-09-01T09:22:08;5.18;;;0.30;;
21356;SDS011;10836;53.068;18.234;2022-09-01T09:29:47;1.10;;;0.28;;
21356;SDS011;10836;53.068;18.234;2022-09-01T09:32:16;2.33;;;0.45;;
21356;SDS011;10836;53.068;18.234;2022-09-01T09:34:49;0.47;;;0.38;;
21356;SDS011;10836;53.068;18.234;2022-09-01T09:37:21;0.65;;;0.20;;
21356;SDS011;10836;53.068;18.234;2022-09-01T09:42:40;1.73;;;0.30;;
21356;SDS011;10836;53.068;18.234;2022-09-01T09:45:32;1.17;;;0.40;;
21356;SDS011;10836;53.068;18.234;2022-09-01T09:48:06;1.40;;;0.38;;
21356;SDS011;10836;53.068;18.234;2022-09-01T09:50:40;0.90;;;0.30;;
21356;SDS011;10836;53.068;18.234;2022-09-01T09:53:13;2.22;;;0.57;;
21356;SDS011;10836;53.068;18.234;2022-09-01T09:56:20;2.28;;;0.77;;
21356;SDS011;10836;53.068;18.234;2022-09-01T09:58:48;1.42;;;0.38;;
21356;SDS011;10836;53.068;18.234;2022-09-01T10:03:57;2.63;;;0.63;;
21356;SDS011;10836;53.068;18.234;2022-09-01T10:06:33;1.83;;;0.40;;
21356;SDS011;10836;53.068;18.234;2022-09-01T10:09:08;1.13;;;0.40;;
21356;SDS011;10836;53.068;18.234;2022-09-01T10:12:03;1.60;;;0.70;;
21356;SDS011;10836;53.068;18.234;2022-09-01T10:14:37;1.35;;;0.40;;
21356;SDS011;10836;53.068;18.234;2022-09-01T10:17:21;1.38;;;0.25;;
21356;SDS011;10836;53.068;18.234;2022-09-01T10:19:56;1.88;;;0.13;;
21356;SDS011;10836;53.068;18.234;2022-09-01T10:22:31;0.45;;;0.30;;
21356;SDS011;10836;53.068;18.234;2022-09-01T10:24:59;10.32;;;0.55;;
21356;SDS011;10836;53.068;18.234;2022-09-01T10:27:31;2.45;;;0.32;;
21356;SDS011;10836;53.068;18.234;2022-09-01T10:30:09;0.65;;;0.30;;
21356;SDS011;10836;53.068;18.234;2022-09-01T10:38:03;3.30;;;0.30;;
21356;SDS011;10836;53.068;18.234;2022-09-01T10:40:39;1.55;;;0.30;;
21356;SDS011;10836;53.068;18.234;2022-09-01T10:43:34;1.00;;;0.15;;
21356;SDS011;10836;53.068;18.234;2022-09-01T10:46:17;0.52;;;0.30;;
21356;SDS011;10836;53.068;18.234;2022-09-01T10:49:23;0.70;;;0.40;;
21356;SDS011;10836;53.068;18.234;2022-09-01T10:52:51;0.80;;;0.38;;
21356;SDS011;10836;53.068;18.234;2022-09-01T10:55:19;0.38;;;0.28;;
21356;SDS011;10836;53.068;18.234;2022-09-01T11:00:53;1.92;;;0.40;;
21356;SDS011;10836;53.068;18.234;2022-09-01T11:03:38;0.52;;;0.40;;
21356;SDS011;10836;53.068;18.234;2022-09-01T11:06:34;0.63;;;0.20;;
21356;SDS011;10836;53.068;18.234;2022-09-01T11:15:01;1.83;;;0.40;;
21356;SDS011;10836;53.068;18.234;2022-09-01T11:17:35;1.38;;;0.47;;
21356;SDS011;10836;53.068;18.234;2022-09-01T11:20:09;0.63;;;0.40;;
21356;SDS011;10836;53.068;18.234;2022-09-01T11:36:29;1.50;;;0.70;;
21356;SDS011;10836;53.068;18.234;2022-09-01T11:39:32;1.77;;;0.32;;
21356;SDS011;10836;53.068;18.234;2022-09-01T11:42:17;1.33;;;0.50;;
21356;SDS011;10836;53.068;18.234;2022-09-01T11:44:48;2.88;;;0.63;;
21356;SDS011;10836;53.068;18.234;2022-09-01T11:47:25;0.70;;;0.40;;
21356;SDS011;10836;53.068;18.234;2022-09-01T11:49:58;18.83;;;1.80;;
21356;SDS011;10836;53.068;18.234;2022-09-01T11:52:31;8.02;;;0.93;;
21356;SDS011;10836;53.068;18.234;2022-09-01T11:55:02;6.55;;;0.80;;
21356;SDS011;10836;53.068;18.234;2022-09-01T11:57:33;0.45;;;0.38;;
21356;SDS011;10836;53.068;18.234;2022-09-01T12:00:04;4.07;;;0.50;;
21356;SDS011;10836;53.068;18.234;2022-09-01T12:02:47;17.67;;;1.98;;
21356;SDS011;10836;53.068;18.234;2022-09-01T12:05:25;4.25;;;0.60;;
21356;SDS011;10836;53.068;18.234;2022-09-01T12:07:57;1.40;;;0.40;;
21356;SDS011;10836;53.068;18.234;2022-09-01T12:10:37;3.72;;;0.50;;
21356;SDS011;10836;53.068;18.234;2022-09-01T12:13:07;2.78;;;0.40;;
21356;SDS011;10836;53.068;18.234;2022-09-01T12:15:37;1.63;;;0.57;;
21356;SDS011;10836;53.068;18.234;2022-09-01T12:18:30;0.93;;;0.20;;
21356;SDS011;10836;53.068;18.234;2022-09-01T12:21:05;2.35;;;0.77;;
21356;SDS011;10836;53.068;18.234;2022-09-01T12:23:37;3.08;;;0.70;;
21356;SDS011;10836;53.068;18.234;2022-09-01T12:26:13;1.48;;;0.68;;
21356;SDS011;10836;53.068;18.234;2022-09-01T12:28:44;0.80;;;0.40;;
21356;SDS011;10836;53.068;18.234;2022-09-01T12:31:17;9.00;;;1.02;;
21356;SDS011;10836;53.068;18.234;2022-09-01T12:33:47;1.05;;;0.40;;
21356;SDS011;10836;53.068;18.234;2022-09-01T12:39:32;1.52;;;0.40;;
21356;SDS011;10836;53.068;18.234;2022-09-01T12:47:13;2.42;;;0.40;;
21356;SDS011;10836;53.068;18.234;2022-09-01T12:52:46;1.42;;;0.50;;
21356;SDS011;10836;53.068;18.234;2022-09-01T12:55:23;0.30;;;0.22;;
21356;SDS011;10836;53.068;18.234;2022-09-01T12:58:11;2.35;;;0.50;;
21356;SDS011;10836;53.068;18.234;2022-09-01T13:03:24;3.58;;;0.70;;
21356;SDS011;10836;53.068;18.234;2022-09-01T13:05:53;20.45;;;1.65;;
21356;SDS011;10836;53.068;18.234;2022-09-01T13:08:22;1.17;;;0.40;;
21356;SDS011;10836;53.068;18.234;2022-09-01T13:13:30;10.60;;;0.60;;
21356;SDS011;10836;53.068;18.234;2022-09-01T13:15:58;4.60;;;0.43;;
21356;SDS011;10836;53.068;18.234;2022-09-01T13:18:39;0.25;;;0.20;;
21356;SDS011;10836;53.068;18.234;2022-09-01T13:21:28;3.40;;;0.30;;
21356;SDS011;10836;53.068;18.234;2022-09-01T13:23:58;0.75;;;0.40;;
21356;SDS011;10836;53.068;18.234;2022-09-01T13:26:25;0.73;;;0.28;;
21356;SDS011;10836;53.068;18.234;2022-09-01T13:28:52;0.38;;;0.20;;
21356;SDS011;10836;53.068;18.234;2022-09-01T13:31:19;1.35;;;0.30;;
21356;SDS011;10836;53.068;18.234;2022-09-01T13:33:55;8.30;;;0.40;;
21356;SDS011;10836;53.068;18.234;2022-09-01T13:36:43;4.03;;;0.50;;
21356;SDS011;10836;53.068;18.234;2022-09-01T13:39:17;1.50;;;0.40;;
21356;SDS011;10836;53.068;18.234;2022-09-01T13:41:46;0.65;;;0.45;;
21356;SDS011;10836;53.068;18.234;2022-09-01T13:44:14;1.35;;;0.40;;
21356;SDS011;10836;53.068;18.234;2022-09-01T13:46:43;1.13;;;0.43;;
21356;SDS011;10836;53.068;18.234;2022-09-01T13:49:31;1.42;;;0.50;;
21356;SDS011;10836;53.068;18.234;2022-09-01T13:52:18;2.20;;;0.60;;
21356;SDS011;10836;53.068;18.234;2022-09-01T13:54:47;3.65;;;0.50;;
21356;SDS011;10836;53.068;18.234;2022-09-01T13:57:14;15.73;;;1.00;;
21356;SDS011;10836;53.068;18.234;2022-09-01T13:59:42;2.53;;;0.55;;
21356;SDS011;10836;53.068;18.234;2022-09-01T14:02:10;0.70;;;0.32;;
21356;SDS011;10836;53.068;18.234;2022-09-01T14:04:37;1.83;;;0.50;;
21356;SDS011;10836;53.068;18.234;2022-09-01T14:07:04;0.95;;;0.38;;
21356;SDS011;10836;53.068;18.234;2022-09-01T14:09:32;0.80;;;0.40;;
21356;SDS011;10836;53.068;18.234;2022-09-01T14:11:59;3.33;;;0.40;;
21356;SDS011;10836;53.068;18.234;2022-09-01T14:14:26;0.77;;;0.47;;
21356;SDS011;10836;53.068;18.234;2022-09-01T14:17:14;1.58;;;0.40;;
21356;SDS011;10836;53.068;18.234;2022-09-01T14:19:41;0.70;;;0.38;;
21356;SDS011;10836;53.068;18.234;2022-09-01T14:22:08;1.20;;;0.50;;
21356;SDS011;10836;53.068;18.234;2022-09-01T14:24:35;33.55;;;4.57;;
21356;SDS011;10836;53.068;18.234;2022-09-01T14:27:06;14.68;;;2.75;;
21356;SDS011;10836;53.068;18.234;2022-09-01T14:29:33;39.00;;;5.63;;
21356;SDS011;10836;53.068;18.234;2022-09-01T14:32:02;39.40;;;3.70;;
21356;SDS011;10836;53.068;18.234;2022-09-01T14:34:29;19.13;;;1.67;;
21356;SDS011;10836;53.068;18.234;2022-09-01T14:36:56;7.70;;;1.13;;
21356;SDS011;10836;53.068;18.234;2022-09-01T14:39:24;2.88;;;0.57;;
21356;SDS011;10836;53.068;18.234;2022-09-01T14:41:51;2.58;;;0.47;;
21356;SDS011;10836;53.068;18.234;2022-09-01T14:44:18;4.10;;;0.88;;
21356;SDS011;10836;53.068;18.234;2022-09-01T14:46:45;2.60;;;0.47;;
21356;SDS011;10836;53.068;18.234;2022-09-01T14:49:12;0.60;;;0.50;;
21356;SDS011;10836;53.068;18.234;2022-09-01T14:51:48;1.23;;;0.55;;
21356;SDS011;10836;53.068;18.234;2022-09-01T14:54:35;0.70;;;0.50;;
21356;SDS011;10836;53.068;18.234;2022-09-01T14:57:04;3.50;;;0.60;;
21356;SDS011;10836;53.068;18.234;2022-09-01T14:59:51;0.98;;;0.57;;
21356;SDS011;10836;53.068;18.234;2022-09-01T15:02:19;1.15;;;0.68;;
21356;SDS011;10836;53.068;18.234;2022-09-01T15:04:46;1.33;;;0.50;;
21356;SDS011;10836;53.068;18.234;2022-09-01T15:07:13;1.27;;;0.50;;
21356;SDS011;10836;53.068;18.234;2022-09-01T15:09:40;0.60;;;0.40;;
21356;SDS011;10836;53.068;18.234;2022-09-01T15:12:08;0.70;;;0.60;;
21356;SDS011;10836;53.068;18.234;2022-09-01T15:14:35;1.05;;;0.47;;
21356;SDS011;10836;53.068;18.234;2022-09-01T15:17:03;2.47;;;0.50;;
21356;SDS011;10836;53.068;18.234;2022-09-01T15:19:30;1.52;;;0.55;;
21356;SDS011;10836;53.068;18.234;2022-09-01T15:21:58;3.70;;;0.60;;
21356;SDS011;10836;53.068;18.234;2022-09-01T15:24:26;1.15;;;0.43;;
21356;SDS011;10836;53.068;18.234;2022-09-01T15:26:53;2.22;;;0.50;;
21356;SDS011;10836;53.068;18.234;2022-09-01T15:29:20;2.28;;;0.52;;
21356;SDS011;10836;53.068;18.234;2022-09-01T15:31:47;1.23;;;0.70;;
21356;SDS011;10836;53.068;18.234;2022-09-01T15:34:14;1.17;;;0.60;;
21356;SDS011;10836;53.068;18.234;2022-09-01T15:36:43;0.95;;;0.65;;
21356;SDS011;10836;53.068;18.234;2022-09-01T15:39:11;1.45;;;0.63;;
21356;SDS011;10836;53.068;18.234;2022-09-01T15:41:38;2.13;;;0.93;;
21356;SDS011;10836;53.068;18.234;2022-09-01T15:44:06;1.55;;;0.70;;
21356;SDS011;10836;53.068;18.234;2022-09-01T15:46:34;2.70;;;0.75;;
21356;SDS011;10836;53.068;18.234;2022-09-01T15:49:06;2.22;;;0.88;;
21356;SDS011;10836;53.068;18.234;2022-09-01T15:54:04;1.17;;;0.63;;
21356;SDS011;10836;53.068;18.234;2022-09-01T15:56:36;3.13;;;0.73;;
21356;SDS011;10836;53.068;18.234;2022-09-01T15:59:05;2.75;;;0.95;;
21356;SDS011;10836;53.068;18.234;2022-09-01T16:01:34;2.60;;;0.60;;
21356;SDS011;10836;53.068;18.234;2022-09-01T16:04:06;3.03;;;1.05;;
21356;SDS011;10836;53.068;18.234;2022-09-01T16:06:43;5.63;;;1.50;;
21356;SDS011;10836;53.068;18.234;2022-09-01T16:09:11;2.63;;;0.98;;
21356;SDS011;10836;53.068;18.234;2022-09-01T16:11:39;1.27;;;0.60;;
21356;SDS011;10836;53.068;18.234;2022-09-01T16:14:06;3.35;;;0.90;;
21356;SDS011;10836;53.068;18.234;2022-09-01T16:24:48;4.20;;;1.20;;
21356;SDS011;10836;53.068;18.234;2022-09-01T16:27:18;3.10;;;0.95;;
21356;SDS011;10836;53.068;18.234;2022-09-01T16:29:52;2.33;;;1.00;;
21356;SDS011;10836;53.068;18.234;2022-09-01T16:32:22;2.90;;;1.20;;